Time;durP1;ratioP1;P1;durP2;ratioP2;P2;SDS_P1;SDS_P2;PMS_P1;PMS_P2;Temp;Humidity;BMP_temperature;BMP_pressure;BME280_temperature;BME280_humidity;BME280_pressure;Samples;Min_cycle;Max_cycle;Signal;HPM_P1;HPM_P2
2022/01/29 00:02:07;;;;;;;26.70;14.50;;;;;;;11.26;66.23;101592.81;4907481;28;122401;-82
2022/01/29 00:04:35;;;;;;;28.65;14.35;;;;;;;11.25;65.98;101596.75;4919892;28;122541;-84
2022/01/29 00:07:01;;;;;;;29.13;14.20;;;;;;;11.31;66.57;101601.28;4910454;28;122764;-85
2022/01/29 00:09:29;;;;;;;27.35;15.30;;;;;;;11.32;65.74;101582.84;4908440;28;121451;-86
2022/01/29 00:11:56;;;;;;;28.48;15.38;;;;;;;11.34;65.95;101581.19;4921272;28;120986;-81
2022/01/29 00:14:22;;;;;;;33.88;15.65;;;;;;;11.46;66.13;101593.44;4939109;28;120381;-85
2022/01/29 00:16:47;;;;;;;27.85;13.52;;;;;;;11.46;66.31;101579.72;4925989;28;119813;-83
2022/01/29 00:19:13;;;;;;;26.48;14.00;;;;;;;11.60;65.98;101582.06;4918092;28;120721;-83
2022/01/29 00:21:38;;;;;;;27.05;14.05;;;;;;;11.56;66.27;101581.38;4915247;28;120011;-83
2022/01/29 00:24:06;;;;;;;24.48;14.35;;;;;;;11.64;66.05;101573.72;4909297;28;122191;-84
2022/01/29 00:26:31;;;;;;;31.05;15.05;;;;;;;11.64;66.21;101568.22;4924224;28;120402;-85
2022/01/29 00:28:58;;;;;;;30.25;13.73;;;;;;;11.67;65.36;101556.38;4910019;28;120739;-82
2022/01/29 00:31:24;;;;;;;26.73;14.70;;;;;;;11.65;64.78;101556.81;4924393;28;121781;-85
2022/01/29 00:33:50;;;;;;;27.60;14.57;;;;;;;11.60;65.28;101549.09;4921369;28;122700;-85
2022/01/29 00:36:15;;;;;;;24.23;13.65;;;;;;;11.60;65.98;101543.59;4916731;28;119540;-87
2022/01/29 00:38:41;;;;;;;25.58;14.57;;;;;;;11.68;65.53;101533.94;4918093;28;120094;-85
2022/01/29 00:41:07;;;;;;;25.23;15.80;;;;;;;11.65;64.92;101534.81;4905830;28;122260;-87
2022/01/29 00:43:35;;;;;;;27.10;15.48;;;;;;;11.68;64.70;101525.69;4926171;28;119786;-83
2022/01/29 00:46:01;;;;;;;28.88;15.25;;;;;;;11.67;65.07;101517.88;4925628;28;119923;-85
2022/01/29 00:48:26;;;;;;;25.30;14.30;;;;;;;11.60;65.23;101494.13;4927400;28;121329;-86
2022/01/29 00:50:52;;;;;;;27.55;15.10;;;;;;;11.65;65.13;101501.06;4922194;28;119810;-84
2022/01/29 00:53:18;;;;;;;31.27;15.25;;;;;;;11.71;65.59;101509.53;4892503;28;122666;-81
2022/01/29 00:55:44;;;;;;;23.05;14.73;;;;;;;11.69;65.36;101490.75;4922105;28;126790;-84
2022/01/29 00:58:10;;;;;;;32.20;16.23;;;;;;;11.71;64.75;101487.56;4924057;28;120679;-83
2022/01/29 01:00:35;;;;;;;23.35;14.35;;;;;;;11.69;65.05;101479.75;4906001;28;120051;-83
2022/01/29 01:03:01;;;;;;;28.85;15.18;;;;;;;11.78;65.18;101477.13;4905597;28;123628;-84
2022/01/29 01:05:27;;;;;;;21.20;12.77;;;;;;;11.74;65.89;101461.94;4902145;28;122779;-83
2022/01/29 01:07:52;;;;;;;30.25;16.15;;;;;;;11.77;65.84;101442.56;4919529;28;119830;-85
2022/01/29 01:10:18;;;;;;;25.05;15.75;;;;;;;11.78;64.92;101443.34;4904077;28;122296;-85
2022/01/29 01:12:43;;;;;;;27.23;13.57;;;;;;;11.73;65.41;101432.91;4919052;28;123178;-85
2022/01/29 01:15:09;;;;;;;22.77;14.00;;;;;;;11.73;66.20;101433.69;4925472;28;120747;-84
2022/01/29 01:17:35;;;;;;;30.52;16.80;;;;;;;11.71;67.63;101421.59;4925469;28;120392;-85
2022/01/29 01:20:03;;;;;;;23.30;13.98;;;;;;;11.75;66.43;101419.50;4928608;28;121171;-83
2022/01/29 01:22:29;;;;;;;19.00;11.85;;;;;;;11.74;67.05;101410.47;4912393;28;122980;-84
2022/01/29 01:24:54;;;;;;;20.38;11.57;;;;;;;11.66;67.66;101406.44;4917404;28;124868;-85
2022/01/29 01:27:20;;;;;;;21.23;11.73;;;;;;;11.67;67.01;101403.22;4907793;28;119926;-84
2022/01/29 01:29:45;;;;;;;17.80;11.18;;;;;;;11.61;67.41;101374.78;4921275;28;119655;-85
2022/01/29 01:32:11;;;;;;;20.90;11.35;;;;;;;11.80;67.04;101391.47;4927111;28;120642;-84
2022/01/29 01:34:43;;;;;;;18.98;11.38;;;;;;;11.76;67.33;101390.78;4923668;28;119741;-85
2022/01/29 01:37:13;;;;;;;17.85;9.90;;;;;;;11.86;67.74;101386.97;4924456;28;120465;-83
2022/01/29 01:39:40;;;;;;;20.30;12.77;;;;;;;11.80;66.82;101364.00;4906394;28;123924;-83
2022/01/29 01:42:07;;;;;;;23.33;13.65;;;;;;;11.73;67.28;101347.72;4942774;28;120189;-84
2022/01/29 01:44:37;;;;;;;18.40;11.13;;;;;;;11.78;66.51;101352.63;4910217;28;121913;-83
2022/01/29 01:47:04;;;;;;;19.33;10.10;;;;;;;11.85;67.46;101363.47;4928759;28;119551;-84
2022/01/29 01:49:32;;;;;;;18.13;10.48;;;;;;;11.82;66.79;101342.31;4922898;28;120614;-85
2022/01/29 01:51:58;;;;;;;17.00;10.32;;;;;;;11.85;66.90;101344.22;4919818;28;121773;-85
2022/01/29 01:54:23;;;;;;;20.25;12.77;;;;;;;11.84;65.93;101331.69;4930762;28;119861;-86
2022/01/29 01:56:49;;;;;;;24.23;13.25;;;;;;;11.84;66.36;101339.94;4914943;28;122978;-83
2022/01/29 01:59:15;;;;;;;21.35;11.63;;;;;;;11.77;66.59;101327.13;4923230;28;120263;-87
2022/01/29 02:01:41;;;;;;;18.33;10.73;;;;;;;11.84;66.90;101321.47;4911825;28;120327;-85
2022/01/29 02:04:06;;;;;;;19.38;11.20;;;;;;;11.85;65.86;101324.97;4934026;28;119999;-86
2022/01/29 02:06:33;;;;;;;17.40;9.10;;;;;;;11.86;66.49;101321.78;4921023;28;119706;-83
2022/01/29 02:09:00;;;;;;;14.70;9.13;;;;;;;11.86;66.85;101315.50;4927067;28;119682;-85
2022/01/29 02:11:27;;;;;;;19.20;9.77;;;;;;;11.76;67.03;101291.84;4929541;28;121059;-86
2022/01/29 02:13:56;;;;;;;18.83;10.13;;;;;;;11.82;67.39;101281.84;4911876;28;119654;-85
2022/01/29 02:16:22;;;;;;;15.68;9.13;;;;;;;11.76;67.50;101276.13;4924627;28;121881;-84
2022/01/29 02:18:48;;;;;;;19.85;10.43;;;;;;;11.77;66.59;101260.41;4929908;28;120372;-83
2022/01/29 02:21:15;;;;;;;19.35;10.75;;;;;;;11.88;67.33;101264.38;4918931;28;119749;-85
2022/01/29 02:23:41;;;;;;;20.90;9.82;;;;;;;11.87;67.09;101264.81;4924840;28;123109;-84
2022/01/29 02:26:07;;;;;;;23.10;12.05;;;;;;;11.84;66.84;101240.97;4913091;28;120469;-82
2022/01/29 02:28:33;;;;;;;20.20;9.38;;;;;;;11.84;66.53;101238.22;4910222;28;123078;-84
2022/01/29 02:31:02;;;;;;;24.05;10.95;;;;;;;11.96;66.41;101245.66;4927065;28;120006;-84
2022/01/29 02:33:30;;;;;;;19.73;9.40;;;;;;;11.94;66.27;101237.06;4910213;28;119733;-84
2022/01/29 02:35:57;;;;;;;19.45;8.80;;;;;;;11.83;67.60;101236.66;4931845;28;120426;-84
2022/01/29 02:38:24;;;;;;;19.90;10.88;;;;;;;11.95;67.82;101241.34;4896347;28;123147;-83
2022/01/29 02:40:55;;;;;;;21.52;9.43;;;;;;;12.03;67.92;101217.88;4926902;28;120222;-85
2022/01/29 02:43:25;;;;;;;25.10;10.90;;;;;;;12.11;67.34;101229.44;4925690;28;120896;-83
2022/01/29 02:45:55;;;;;;;23.60;11.40;;;;;;;12.04;67.54;101200.19;4928425;28;120352;-84
2022/01/29 02:48:23;;;;;;;28.75;12.65;;;;;;;12.16;67.94;101210.34;4930621;28;119881;-83
2022/01/29 02:50:50;;;;;;;29.63;12.52;;;;;;;12.19;68.10;101198.47;4926538;28;123187;-82
2022/01/29 02:53:16;;;;;;;39.72;13.93;;;;;;;12.16;67.29;101171.84;4906241;28;120577;-86
2022/01/29 02:55:42;;;;;;;39.15;13.73;;;;;;;12.22;66.92;101191.28;4905272;28;121833;-82
2022/01/29 02:58:08;;;;;;;38.75;12.35;;;;;;;12.11;67.11;101164.19;4909852;28;124598;-83
2022/01/29 03:00:34;;;;;;;35.03;14.18;;;;;;;12.19;66.66;101183.94;4930622;28;120037;-86
2022/01/29 03:03:02;;;;;;;35.50;14.32;;;;;;;12.21;66.66;101187.00;4895065;28;121920;-85
2022/01/29 03:05:28;;;;;;;36.55;14.93;;;;;;;12.21;67.21;101167.75;4926033;28;123359;-81
2022/01/29 03:07:56;;;;;;;39.40;13.55;;;;;;;12.30;67.20;101170.53;4931050;28;120036;-82
2022/01/29 03:10:23;;;;;;;47.38;16.05;;;;;;;12.24;66.24;101164.09;4923284;28;120478;-82
2022/01/29 03:12:48;;;;;;;42.47;15.27;;;;;;;12.22;67.02;101156.31;4918323;28;121566;-85
2022/01/29 03:15:14;;;;;;;39.70;14.88;;;;;;;12.23;67.09;101151.56;4909813;28;122581;-85
2022/01/29 03:17:42;;;;;;;44.63;14.38;;;;;;;12.27;66.78;101141.97;4903052;28;120369;-84
2022/01/29 03:20:09;;;;;;;42.75;14.90;;;;;;;12.30;66.71;101143.03;4926271;28;119849;-81
2022/01/29 03:22:34;;;;;;;43.97;15.88;;;;;;;12.33;66.43;101133.16;4925560;28;122898;-84
2022/01/29 03:25:00;;;;;;;32.50;13.57;;;;;;;12.38;66.77;101125.06;4910396;28;123439;-82
2022/01/29 03:27:25;;;;;;;37.70;12.85;;;;;;;12.36;67.23;101141.25;4927555;28;121190;-83
2022/01/29 03:29:51;;;;;;;32.03;12.18;;;;;;;12.39;66.87;101126.59;4924405;28;119541;-82
2022/01/29 03:32:17;;;;;;;29.30;11.50;;;;;;;12.37;67.62;101109.00;4910049;28;120277;-84
2022/01/29 03:34:42;;;;;;;27.98;11.00;;;;;;;12.36;67.57;101118.47;4910550;28;119686;-82
2022/01/29 03:37:08;;;;;;;30.90;12.15;;;;;;;12.18;67.07;101083.41;4901248;28;122962;-83
2022/01/29 03:39:36;;;;;;;26.58;11.05;;;;;;;12.34;66.79;101102.44;4916439;28;119803;-83
2022/01/29 03:42:06;;;;;;;29.08;11.18;;;;;;;12.32;66.69;101095.84;4917057;28;119804;-82
2022/01/29 03:44:32;;;;;;;21.38;9.45;;;;;;;12.42;67.54;101111.16;4909868;28;121266;-83
2022/01/29 03:46:58;;;;;;;24.30;9.25;;;;;;;12.40;67.49;101092.38;4925438;28;119919;-83
2022/01/29 03:49:23;;;;;;;21.10;8.80;;;;;;;12.43;67.55;101093.44;4910612;28;122074;-83
2022/01/29 03:51:49;;;;;;;21.15;8.48;;;;;;;12.48;66.95;101085.34;4929406;28;122735;-85
2022/01/29 03:54:15;;;;;;;17.92;7.03;;;;;;;12.47;66.80;101083.06;4926170;28;121341;-85
2022/01/29 03:56:40;;;;;;;16.85;7.43;;;;;;;12.51;66.84;101086.44;4904172;28;122673;-84
2022/01/29 03:59:06;;;;;;;19.15;7.70;;;;;;;12.47;67.50;101078.31;4930024;28;120542;-83
2022/01/29 04:01:32;;;;;;;13.02;6.78;;;;;;;12.52;67.32;101087.97;4926566;28;123201;-82
2022/01/29 04:03:57;;;;;;;15.40;7.28;;;;;;;12.46;67.47;101074.03;4907722;28;123182;-84
2022/01/29 04:06:23;;;;;;;14.60;7.57;;;;;;;12.51;67.13;101078.19;4911544;28;119651;-81
2022/01/29 04:08:49;;;;;;;13.80;7.03;;;;;;;12.53;67.20;101070.22;4912382;28;121818;-82
2022/01/29 04:11:15;;;;;;;14.02;7.93;;;;;;;12.45;67.50;101055.22;4908000;28;122845;-85
2022/01/29 04:13:45;;;;;;;14.55;7.78;;;;;;;12.52;67.56;101049.44;4931849;28;120490;-85
2022/01/29 04:16:12;;;;;;;15.65;8.18;;;;;;;12.53;68.10;101046.22;4923568;28;120204;-85
2022/01/29 04:18:38;;;;;;;16.55;8.00;;;;;;;12.56;67.41;101044.59;4908946;28;120355;-83
2022/01/29 04:21:05;;;;;;;14.07;8.13;;;;;;;12.56;67.37;101023.34;4925600;28;119649;-82
2022/01/29 04:23:31;;;;;;;14.48;7.47;;;;;;;12.53;67.45;101026.19;4925584;28;120929;-83
2022/01/29 04:25:57;;;;;;;14.27;7.45;;;;;;;12.55;67.95;101026.53;4928294;28;119965;-83
2022/01/29 04:28:27;;;;;;;12.88;7.88;;;;;;;12.51;67.49;101020.41;4923421;28;119917;-83
2022/01/29 04:30:58;;;;;;;15.10;7.40;;;;;;;12.57;67.77;101024.84;4928847;28;121495;-84
2022/01/29 04:33:28;;;;;;;17.67;8.45;;;;;;;12.54;68.22;101022.25;4925595;28;119998;-84
2022/01/29 04:35:59;;;;;;;17.63;9.60;;;;;;;12.52;68.31;100997.16;4920733;28;122977;-83
2022/01/29 04:38:26;;;;;;;16.23;8.75;;;;;;;12.51;68.95;101001.13;4906414;28;119725;-83
2022/01/29 04:40:53;;;;;;;14.98;8.43;;;;;;;12.48;68.68;100977.28;4941236;28;121849;-83
2022/01/29 04:43:18;;;;;;;21.10;9.68;;;;;;;12.45;68.35;100989.97;4903287;28;123117;-84
2022/01/29 04:45:44;;;;;;;15.68;8.23;;;;;;;12.41;68.10;100970.09;4923509;28;119805;-84
2022/01/29 04:48:10;;;;;;;17.65;8.50;;;;;;;12.49;68.86;100984.31;4911843;28;122053;-83
2022/01/29 04:50:36;;;;;;;18.67;8.95;;;;;;;12.35;68.58;100962.91;4921409;28;122852;-82
2022/01/29 04:53:02;;;;;;;21.08;10.48;;;;;;;12.39;68.10;100958.03;4912231;28;123482;-83
2022/01/29 04:55:27;;;;;;;16.48;9.38;;;;;;;12.46;69.01;100966.72;4925262;28;119650;-84
2022/01/29 04:57:53;;;;;;;19.38;11.15;;;;;;;12.46;68.20;100969.50;4913914;28;120133;-81
2022/01/29 05:00:21;;;;;;;25.00;11.30;;;;;;;12.46;69.13;100963.22;4926271;28;120385;-83
2022/01/29 05:02:48;;;;;;;28.50;12.18;;;;;;;12.46;69.06;100952.22;4919910;28;120055;-82
2022/01/29 05:05:17;;;;;;;29.10;13.57;;;;;;;12.51;68.34;100962.63;4903777;28;119893;-85
2022/01/29 05:07:43;;;;;;;33.17;13.82;;;;;;;12.50;68.90;100958.34;4922128;28;119686;-83
2022/01/29 05:10:09;;;;;;;33.45;13.57;;;;;;;12.49;69.65;100959.56;4923855;28;119838;-85
2022/01/29 05:12:46;;;;;;;44.50;16.65;;;;;;;12.63;68.74;100955.47;4921855;28;120524;-83
2022/01/29 05:28:46;;;;;;;60.47;19.00;;;;;;;12.66;68.49;100944.28;4924622;28;121860;-84
2022/01/29 05:31:12;;;;;;;43.97;16.00;;;;;;;12.70;68.67;100914.63;4912933;28;123206;-83
2022/01/29 05:33:37;;;;;;;58.15;18.50;;;;;;;12.78;67.93;100935.13;4913462;28;119740;-84
2022/01/29 05:36:03;;;;;;;57.08;18.05;;;;;;;12.76;67.91;100901.78;4923252;28;121833;-85
2022/01/29 05:38:29;;;;;;;47.03;15.48;;;;;;;12.83;68.24;100906.22;4928025;28;123162;-85
2022/01/29 05:40:55;;;;;;;60.28;19.25;;;;;;;12.81;67.66;100903.94;4917092;28;120553;-84
2022/01/29 05:43:21;;;;;;;63.10;18.60;;;;;;;12.83;67.49;100898.72;4923848;28;121507;-85
2022/01/29 05:45:50;;;;;;;56.92;18.40;;;;;;;12.83;67.39;100873.94;4923837;28;119968;-84
2022/01/29 05:48:15;;;;;;;57.85;18.58;;;;;;;12.81;67.69;100889.41;4928275;28;122916;-85
2022/01/29 05:50:41;;;;;;;43.17;15.60;;;;;;;12.83;68.31;100871.19;4893031;28;123940;-84
2022/01/29 05:53:07;;;;;;;59.38;18.38;;;;;;;12.83;67.58;100862.19;4913531;28;120864;-83
2022/01/29 05:55:32;;;;;;;46.03;15.65;;;;;;;12.91;68.18;100879.91;4925435;28;120508;-84
2022/01/29 05:57:58;;;;;;;46.30;15.15;;;;;;;12.90;68.56;100879.13;4923766;28;120210;-84
2022/01/29 06:00:24;;;;;;;51.08;15.82;;;;;;;13.00;67.68;100868.09;4907788;28;119895;-84
2022/01/29 06:03:03;;;;;;;51.40;14.75;;;;;;;12.96;67.48;100871.00;4913690;28;122648;-84
2022/01/29 06:05:29;;;;;;;53.45;16.25;;;;;;;13.06;67.38;100878.03;4893224;28;120473;-83
2022/01/29 06:08:00;;;;;;;51.90;15.82;;;;;;;13.02;66.94;100874.69;4928234;28;119842;-84
2022/01/29 06:10:30;;;;;;;53.17;15.93;;;;;;;13.01;67.50;100864.13;4890871;28;123249;-83
2022/01/29 06:13:00;;;;;;;48.65;15.98;;;;;;;13.11;67.43;100880.16;4912730;28;121213;-85
2022/01/29 06:15:26;;;;;;;54.45;17.00;;;;;;;13.04;67.56;100866.72;4928315;28;122623;-85
2022/01/29 06:17:51;;;;;;;52.13;14.85;;;;;;;13.05;67.81;100860.00;4926821;28;119996;-84
2022/01/29 06:20:17;;;;;;;53.35;17.27;;;;;;;13.08;66.98;100852.78;4901158;28;120052;-84
2022/01/29 06:22:43;;;;;;;48.13;16.10;;;;;;;13.12;66.85;100864.41;4910059;28;119743;-84
2022/01/29 06:25:09;;;;;;;46.95;14.80;;;;;;;13.04;67.80;100824.66;4930249;28;119599;-84
2022/01/29 06:27:35;;;;;;;49.92;15.55;;;;;;;13.11;67.38;100862.88;4929567;28;122328;-84
2022/01/29 06:30:01;;;;;;;50.72;14.93;;;;;;;13.13;67.76;100860.41;4905457;28;122612;-84
2022/01/29 06:32:26;;;;;;;51.13;15.02;;;;;;;13.13;67.18;100833.66;4909357;28;120082;-85
2022/01/29 06:34:52;;;;;;;52.08;14.82;;;;;;;13.12;67.21;100831.34;4912878;28;122198;-85
2022/01/29 06:37:17;;;;;;;50.85;15.90;;;;;;;13.17;66.99;100812.22;4924016;28;119963;-85
2022/01/29 06:39:43;;;;;;;40.78;13.32;;;;;;;13.10;67.68;100795.25;4909897;28;120073;-84
2022/01/29 06:42:09;;;;;;;49.00;14.95;;;;;;;13.11;67.43;100802.28;4926031;28;121642;-85
2022/01/29 06:44:34;;;;;;;43.03;13.25;;;;;;;13.18;67.70;100810.25;4914926;28;123813;-85
2022/01/29 06:47:00;;;;;;;44.60;13.77;;;;;;;13.20;67.11;100821.56;4922943;28;119647;-85
2022/01/29 06:49:25;;;;;;;43.65;12.48;;;;;;;13.22;67.26;100824.59;4928012;28;120531;-84
2022/01/29 06:51:53;;;;;;;46.10;13.93;;;;;;;13.31;67.31;100832.09;4913844;28;119865;-85
2022/01/29 06:54:19;;;;;;;42.03;13.50;;;;;;;13.31;67.02;100832.09;4912197;28;120416;-85
2022/01/29 06:56:48;;;;;;;60.50;16.75;;;;;;;13.34;66.82;100826.41;4923151;28;121357;-85
2022/01/29 06:59:13;;;;;;;52.15;14.55;;;;;;;13.27;66.89;100832.25;4924839;28;120253;-84
2022/01/29 07:01:39;;;;;;;43.08;13.63;;;;;;;13.30;67.21;100822.31;4909789;28;122849;-84
2022/01/29 07:04:05;;;;;;;57.08;15.43;;;;;;;13.28;66.19;100820.00;4909581;28;121251;-82
2022/01/29 07:06:31;;;;;;;49.78;16.17;;;;;;;13.31;66.42;100821.06;4914294;28;120543;-85
2022/01/29 07:08:58;;;;;;;48.88;15.32;;;;;;;13.29;67.26;100816.03;4913629;28;122523;-85
2022/01/29 07:11:24;;;;;;;51.17;14.50;;;;;;;13.19;67.89;100786.97;4909531;28;119998;-85
2022/01/29 07:14:00;;;;;;;47.97;13.85;;;;;;;13.27;68.60;100788.19;4927107;28;119638;-84
2022/01/29 07:16:26;;;;;;;46.33;14.55;;;;;;;13.31;68.07;100788.00;4923433;28;123004;-84
2022/01/29 07:18:52;;;;;;;48.08;15.02;;;;;;;13.31;68.07;100794.28;4926591;28;120740;-85
2022/01/29 07:21:17;;;;;;;51.38;15.02;;;;;;;13.25;68.50;100781.59;4926482;28;119851;-82
2022/01/29 07:23:43;;;;;;;47.97;15.60;;;;;;;13.28;67.70;100769.66;4929914;28;122889;-85
2022/01/29 07:26:09;;;;;;;55.15;16.60;;;;;;;13.26;68.29;100780.38;4925970;28;119695;-85
2022/01/29 07:28:34;;;;;;;48.10;14.93;;;;;;;13.23;68.82;100771.03;4925179;28;120412;-85
2022/01/29 07:31:01;;;;;;;44.75;15.23;;;;;;;13.23;68.83;100749.00;4909895;28;123013;-85
2022/01/29 07:33:28;;;;;;;47.88;16.52;;;;;;;13.32;69.08;100768.25;4926577;28;120014;-84
2022/01/29 07:35:57;;;;;;;48.55;16.23;;;;;;;13.28;69.14;100766.91;4925564;28;119988;-85
2022/01/29 07:38:22;;;;;;;47.83;16.10;;;;;;;13.26;69.46;100758.34;4921378;28;120132;-83
2022/01/29 07:40:48;;;;;;;47.47;16.35;;;;;;;13.35;68.93;100750.03;4929585;28;119910;-85
2022/01/29 07:43:13;;;;;;;50.25;15.98;;;;;;;13.30;69.75;100748.69;4922743;28;122235;-85
2022/01/29 07:45:42;;;;;;;48.83;16.52;;;;;;;13.31;69.55;100758.47;4909552;28;120372;-85
2022/01/29 07:48:15;;;;;;;48.17;16.55;;;;;;;13.32;69.86;100757.25;4944109;28;119662;-83
2022/01/29 07:50:41;;;;;;;51.47;16.60;;;;;;;13.29;68.89;100755.44;4895266;28;123192;-85
2022/01/29 07:53:06;;;;;;;61.50;19.35;;;;;;;13.20;68.51;100733.41;4906803;28;121355;-85
2022/01/29 07:55:32;;;;;;;54.80;20.10;;;;;;;13.15;68.81;100725.78;4927350;28;119945;-85
2022/01/29 07:57:58;;;;;;;58.15;17.48;;;;;;;13.15;68.75;100723.00;4921863;28;119675;-84
2022/01/29 08:00:27;;;;;;;55.63;16.63;;;;;;;13.18;69.37;100724.88;4907165;28;120071;-86
2022/01/29 08:02:52;;;;;;;51.63;17.35;;;;;;;13.10;69.69;100707.13;4926774;28;120304;-84
2022/01/29 08:05:18;;;;;;;56.15;18.33;;;;;;;13.15;71.03;100715.53;4928939;28;120004;-85
2022/01/29 08:07:43;;;;;;;59.88;17.55;;;;;;;13.26;71.13;100720.56;4903588;28;122316;-85
2022/01/29 08:10:09;;;;;;;64.22;18.52;;;;;;;13.22;70.56;100708.91;4923979;28;120011;-85
2022/01/29 08:12:35;;;;;;;56.97;19.40;;;;;;;13.21;70.89;100690.88;4931474;28;120210;-86
2022/01/29 08:15:03;;;;;;;61.15;17.98;;;;;;;13.21;71.21;100705.41;4920596;28;123010;-85
2022/01/29 08:17:28;;;;;;;52.92;18.35;;;;;;;13.27;70.81;100699.28;4923338;28;120836;-81
2022/01/29 08:19:54;;;;;;;52.67;16.98;;;;;;;13.35;71.37;100714.22;4927696;28;119938;-85
2022/01/29 08:22:20;;;;;;;51.90;16.27;;;;;;;13.33;70.31;100703.66;4925711;28;120483;-85
2022/01/29 08:24:46;;;;;;;51.35;15.52;;;;;;;13.29;70.15;100697.56;4921899;28;119820;-85
2022/01/29 08:27:12;;;;;;;52.42;16.40;;;;;;;13.38;71.17;100694.00;4918051;28;120033;-84
2022/01/29 08:29:37;;;;;;;49.63;15.40;;;;;;;13.38;71.16;100711.28;4923617;28;120057;-85
2022/01/29 08:32:03;;;;;;;46.20;15.27;;;;;;;13.37;71.11;100682.22;4930211;28;120073;-84
2022/01/29 08:34:29;;;;;;;46.53;13.95;;;;;;;13.41;70.22;100677.28;4922964;28;119902;-85
2022/01/29 08:36:57;;;;;;;49.65;14.70;;;;;;;13.46;71.06;100684.91;4906544;28;120178;-84
2022/01/29 08:39:24;;;;;;;45.85;13.00;;;;;;;13.50;70.68;100674.47;4890472;28;123144;-85
2022/01/29 08:41:52;;;;;;;53.75;12.68;;;;;;;13.60;70.49;100679.91;4925656;28;121839;-85
2022/01/29 08:44:17;;;;;;;47.25;11.80;;;;;;;13.67;69.24;100680.31;4908291;28;119876;-85
2022/01/29 08:46:43;;;;;;;44.33;10.80;;;;;;;13.70;68.79;100659.31;4929528;28;123010;-84
2022/01/29 08:49:09;;;;;;;42.58;12.07;;;;;;;13.66;68.77;100647.69;4924633;28;120230;-85
2022/01/29 08:51:34;;;;;;;53.65;11.52;;;;;;;13.60;67.25;100635.81;4910734;28;120252;-85
2022/01/29 08:54:00;;;;;;;47.70;12.07;;;;;;;13.57;66.86;100642.28;4896444;28;121876;-85
2022/01/29 08:56:26;;;;;;;46.75;12.90;;;;;;;13.47;66.73;100630.53;4929907;28;120711;-88
2022/01/29 08:58:54;;;;;;;51.85;13.00;;;;;;;13.43;66.63;100629.97;4921537;28;120115;-92
2022/01/29 09:01:20;;;;;;;37.70;10.40;;;;;;;13.31;67.76;100631.75;4885920;28;122979;-85
2022/01/29 09:03:45;;;;;;;41.55;10.00;;;;;;;13.38;68.53;100625.88;4922421;28;122213;-86
2022/01/29 09:06:14;;;;;;;36.50;10.27;;;;;;;13.48;68.68;100626.56;4927518;28;120239;-88
2022/01/29 09:08:46;;;;;;;45.47;10.25;;;;;;;13.47;68.58;100614.78;4895185;28;123063;-86
2022/01/29 09:11:14;;;;;;;34.97;9.27;;;;;;;13.52;68.26;100614.16;4894334;28;119873;-85
2022/01/29 09:13:39;;;;;;;34.85;8.75;;;;;;;13.46;68.61;100602.22;4910590;28;120101;-87
2022/01/29 09:16:05;;;;;;;45.13;10.40;;;;;;;13.51;68.54;100592.56;4914785;28;122866;-87
2022/01/29 09:18:31;;;;;;;40.88;12.23;;;;;;;13.61;67.99;100584.97;4929683;28;120917;-87
2022/01/29 09:20:56;;;;;;;48.03;10.15;;;;;;;13.57;67.38;100576.91;4923501;28;121149;-87
2022/01/29 09:23:22;;;;;;;34.50;8.82;;;;;;;13.63;68.03;100550.19;4925122;28;120486;-86
2022/01/29 09:25:48;;;;;;;45.20;9.10;;;;;;;13.64;67.36;100562.75;4911865;28;121877;-87
2022/01/29 09:28:14;;;;;;;37.65;9.77;;;;;;;13.72;67.58;100576.91;4926200;28;120541;-87
2022/01/29 09:30:41;;;;;;;40.75;9.18;;;;;;;13.62;67.53;100553.44;4928564;28;119840;-88
2022/01/29 09:33:07;;;;;;;37.28;9.23;;;;;;;13.61;67.45;100568.44;4910204;28;122569;-86
2022/01/29 09:35:32;;;;;;;30.55;8.43;;;;;;;13.63;68.06;100546.69;4921872;28;123339;-87
2022/01/29 09:37:58;;;;;;;35.72;9.13;;;;;;;13.73;68.08;100564.66;4904535;28;120338;-86
2022/01/29 09:40:23;;;;;;;36.67;8.52;;;;;;;13.67;67.72;100533.47;4898898;28;123922;-87
2022/01/29 09:42:52;;;;;;;35.13;8.70;;;;;;;13.76;67.86;100525.13;4922550;28;120406;-86
2022/01/29 09:45:23;;;;;;;29.02;8.23;;;;;;;13.70;67.02;100513.22;4909674;28;123411;-86
2022/01/29 09:47:49;;;;;;;37.47;8.95;;;;;;;13.81;67.54;100510.66;4892632;28;124015;-88
2022/01/29 09:50:17;;;;;;;33.75;8.65;;;;;;;13.82;67.68;100517.69;4890652;28;120694;-87
2022/01/29 09:52:43;;;;;;;34.13;8.13;;;;;;;13.82;67.84;100495.63;4908422;28;122303;-85
2022/01/29 09:55:09;;;;;;;28.75;7.90;;;;;;;13.95;67.60;100515.38;4941464;28;120542;-85
2022/01/29 09:57:35;;;;;;;36.05;9.02;;;;;;;13.95;66.57;100487.81;4922922;28;121365;-88
2022/01/29 10:00:04;;;;;;;39.25;8.85;;;;;;;13.92;67.53;100497.03;4927866;28;124065;-87
2022/01/29 10:02:37;;;;;;;37.08;9.05;;;;;;;13.92;66.64;100496.28;4926994;28;120065;-87
2022/01/29 10:05:04;;;;;;;35.40;8.52;;;;;;;13.81;67.01;100478.34;4925984;28;122362;-89
2022/01/29 10:07:31;;;;;;;32.88;8.43;;;;;;;13.91;67.27;100495.53;4906333;28;124225;-88
2022/01/29 10:10:01;;;;;;;30.27;8.35;;;;;;;13.97;67.37;100485.34;4924968;28;121310;-87
2022/01/29 10:12:28;;;;;;;34.80;8.10;;;;;;;14.00;67.23;100494.66;4925887;28;119931;-87
2022/01/29 10:15:06;;;;;;;31.08;7.80;;;;;;;13.96;67.22;100481.09;4925721;28;120264;-87
2022/01/29 10:17:53;;;;;;;34.17;8.23;;;;;;;14.01;66.66;100463.84;4909385;28;121403;-88
2022/01/29 10:20:20;;;;;;;32.53;8.13;;;;;;;14.02;67.20;100459.84;4893565;28;122180;-88
2022/01/29 10:22:49;;;;;;;32.10;8.68;;;;;;;14.05;66.27;100436.84;4909039;28;124026;-88
2022/01/29 10:25:21;;;;;;;35.95;7.30;;;;;;;13.98;66.95;100428.22;4906567;28;122414;-88
2022/01/29 10:28:05;;;;;;;36.30;8.90;;;;;;;14.02;66.17;100429.53;4907596;28;123072;-87
2022/01/29 10:30:48;;;;;;;35.47;8.50;;;;;;;13.97;66.40;100418.41;4921897;28;121454;-89
2022/01/29 10:33:26;;;;;;;30.25;7.25;;;;;;;14.06;66.63;100416.28;4906519;28;122091;-89
2022/01/29 10:35:55;;;;;;;38.10;7.50;;;;;;;13.94;65.95;100398.06;4895097;28;125221;-88
2022/01/29 10:38:26;;;;;;;34.90;7.63;;;;;;;14.06;66.16;100421.81;4920790;28;120063;-88
2022/01/29 10:41:23;;;;;;;38.08;9.73;;;;;;;14.02;66.22;100426.00;4909622;28;123984;-88
2022/01/29 10:44:39;;;;;;;34.92;7.82;;;;;;;13.98;66.45;100440.00;4926618;28;123499;-88
2022/01/29 10:46:58;;;;;;;33.72;8.20;;;;;;;14.01;66.55;100430.75;4908148;28;122904;-89
2022/01/29 10:49:23;;;;;;;26.80;7.68;;;;;;;14.07;67.06;100441.88;4910841;28;123215;-88
2022/01/29 10:52:08;;;;;;;35.50;7.85;;;;;;;14.06;65.62;100430.09;4911935;28;122469;-89
2022/01/29 10:54:39;;;;;;;32.38;7.55;;;;;;;13.96;66.21;100411.38;4910273;28;123718;-88
2022/01/29 10:57:17;;;;;;;31.67;8.55;;;;;;;13.98;65.69;100409.66;4895621;28;123258;-89
2022/01/29 10:59:48;;;;;;;32.30;9.10;;;;;;;14.00;66.20;100425.72;4913632;28;119970;-90
2022/01/29 11:02:18;;;;;;;33.08;8.30;;;;;;;13.94;67.29;100402.81;4925006;28;123322;-91
2022/01/29 11:04:48;;;;;;;30.38;7.75;;;;;;;13.71;66.75;100363.13;4904497;28;123416;-89
2022/01/29 11:07:17;;;;;;;30.10;8.10;;;;;;;13.89;66.77;100354.63;4923910;28;120875;-90
2022/01/29 11:09:50;;;;;;;35.30;7.82;;;;;;;13.72;67.08;100357.19;4929199;28;120204;-88
2022/01/29 11:12:25;;;;;;;30.85;8.48;;;;;;;14.09;66.55;100371.19;4922267;28;120700;-89
2022/01/29 11:14:55;;;;;;;32.88;8.45;;;;;;;13.71;66.50;100274.94;4927853;28;122428;-89
2022/01/29 11:17:26;;;;;;;30.05;8.23;;;;;;;14.10;66.58;100358.16;4911638;28;122914;-89
2022/01/29 11:19:54;;;;;;;34.92;8.48;;;;;;;14.16;65.50;100341.69;4918053;28;120272;-90